KHIB/HIB METAR and TAF weather

Enter ICAO airport designator
Station Type Date Time Source
KHIB METAR 2020/08/07 12:53 UTC NOAA

KHIB 071253Z AUTO 14006KT 10SM BKN034 OVC050 17/15 A3000 RMK AO2 SLP158 T01720150


Station Type Date Time Source
KHIB Decoded METAR 2020/08/07 12:53 UTC NOAA

CHISHOLM-HIBBING AIRPORT, MN, United States (KHIB) 47-23N 92-50W 412M
Aug 07, 2020 - 08:53 AM EDT / 2020.08.07 1253 UTC
Wind: from the SE (140 degrees) at 7 MPH (6 KT):0
Visibility: 10 mile(s):0
Sky conditions: overcast
Temperature: 63.0 F (17.2 C)
Dew Point: 59.0 F (15.0 C)
Relative Humidity: 86%
Pressure (altimeter): 30 in. Hg (1015 hPa)
ob: KHIB 071253Z AUTO 14006KT 10SM BKN034 OVC050 17/15 A3000 RMK AO2 SLP158 T01720150
cycle: 13

Station Type Date Time Source
KHIB TAF 2020/08/07 12:22 UTC NOAA

TAF KHIB 071120Z 0712/0812 14005KT P6SM SCT015
FM071330 16008KT P6SM BKN015 OVC025
FM072100 17009KT P6SM VCTS SCT015CB BKN025
FM080000 VRB04KT 3SM -TSRA BR BKN015CB OVC025
FM080400 18005KT 3SM BR SCT005

Example: see airport list